SBGL/GIG METAR and TAF weather

Enter ICAO airport designator
Station Type Date Time Source
SBGL METAR 2024/02/21 01:00 UTC NOAA

SBGL 210100Z 13005KT 9999 SCT023 BKN030 25/23 Q1008


Station Type Date Time Source
SBGL Decoded METAR 2024/02/21 01:00 UTC NOAA

Galeao, Brazil (SBGL) 22-49S 043-15W 42M
Feb 20, 2024 - 08:00 PM EST / 2024.02.21 0100 UTC
Wind: from the SE (130 degrees) at 6 MPH (5 KT):0
Visibility: greater than 7 mile(s):0
Sky conditions: mostly cloudy
Temperature: 77 F (25 C)
Dew Point: 73 F (23 C)
Relative Humidity: 88%
Pressure (altimeter): 29.77 in. Hg (1008 hPa)
ob: SBGL 210100Z 13005KT 9999 SCT023 BKN030 25/23 Q1008
cycle: 1

Station Type Date Time Source
SBGL TAF 2024/02/21 00:00 UTC NOAA

TAF SBGL 201800Z 2100/2206 06005KT 9999 FEW020 TN24/2108Z TX31/2117Z
BECMG 2115/2117 13010KT FEW020 FEW035TCU
TEMPO 2119/2123 5000 TSRA BKN030 FEW040CB
BECMG 2200/2202 03005KT SCT006 BKN010
RMK PGY

Example: see airport list